Terminal Aerodrome Forecast
Issued by NWS

Home | Current Version | Previous Version | Text Only | Print | Product List | Glossary On
Versions: 1 2 3 4 5 6 7 8 9 10 11 12 13 14 15 16 17 18 19 20 21 22
024
FTUS45 KGGW 251123
TAFGDV
TAF
KGDV 251123Z 2512/2612 20009KT P6SM SCT250
     FM251700 23014KT P6SM SCT250
     FM252000 26015KT P6SM SCT240
     FM252300 30016KT P6SM SCT210
     FM260200 33016G24KT P6SM BKN090
     FM260700 30007KT P6SM SCT100=

USA.gov is the U.S. government's official web portal to all federal, state and local government web resources and services.